createdAt,value
2023-02-15T00:00:11.661Z,16.10
2023-02-15T00:02:39.939Z,16.60
2023-02-15T00:05:08.141Z,16.80
2023-02-15T00:07:38.502Z,17.73
2023-02-15T00:10:06.629Z,17.73
2023-02-15T00:12:36.585Z,17.75
2023-02-15T00:15:06.416Z,17.87
2023-02-15T00:17:36.016Z,18.65
2023-02-15T00:20:03.435Z,17.75
2023-02-15T00:22:30.799Z,18.02
2023-02-15T00:25:00.291Z,17.47
2023-02-15T00:27:32.408Z,17.63
2023-02-15T00:30:02.110Z,17.60
2023-02-15T00:32:32.445Z,17.20
2023-02-15T00:34:59.716Z,15.70
2023-02-15T00:37:27.057Z,16.95
2023-02-15T00:39:54.395Z,17.37
2023-02-15T00:42:21.780Z,16.45
2023-02-15T00:44:49.131Z,16.87
2023-02-15T00:47:18.837Z,17.50
2023-02-15T00:49:46.126Z,17.95
2023-02-15T00:52:13.367Z,18.40
2023-02-15T00:54:44.978Z,18.45
2023-02-15T00:57:16.568Z,18.05
2023-02-15T00:59:43.873Z,18.23
2023-02-15T01:02:11.161Z,18.88
2023-02-15T01:04:43.995Z,17.30
2023-02-15T01:07:11.263Z,18.03
2023-02-15T01:09:38.528Z,16.83
2023-02-15T01:12:06.009Z,17.63
2023-02-15T01:14:33.327Z,18.02
2023-02-15T01:17:02.851Z,16.42
2023-02-15T01:19:36.138Z,15.73
2023-02-15T01:22:05.805Z,15.00
2023-02-15T01:24:35.463Z,15.38
2023-02-15T01:27:02.719Z,14.32
2023-02-15T01:29:32.118Z,15.25
2023-02-15T01:31:59.434Z,16.33
2023-02-15T01:34:26.903Z,15.40
2023-02-15T01:36:58.815Z,15.30
2023-02-15T01:39:26.187Z,15.77
2023-02-15T01:41:53.567Z,15.80
2023-02-15T01:44:59.104Z,15.50
2023-02-15T01:47:31.409Z,15.52
2023-02-15T01:50:09.122Z,15.20
2023-02-15T01:52:44.046Z,13.32
2023-02-15T01:55:13.608Z,13.98
2023-02-15T01:57:41.870Z,13.40
2023-02-15T02:00:10.239Z,14.10
2023-02-15T02:02:37.809Z,14.38
2023-02-15T02:05:07.772Z,14.63
2023-02-15T02:07:43.285Z,14.15
2023-02-15T02:10:14.782Z,13.90
2023-02-15T02:12:44.996Z,12.98
2023-02-15T02:15:16.127Z,13.73
2023-02-15T02:17:43.359Z,14.35
2023-02-15T02:20:16.949Z,13.35
2023-02-15T02:23:21.116Z,13.85
2023-02-15T02:26:03.405Z,13.15
2023-02-15T02:29:08.509Z,15.20
2023-02-15T02:32:04.407Z,14.23
2023-02-15T02:34:44.404Z,13.52
2023-02-15T02:37:14.476Z,14.73
2023-02-15T02:40:07.277Z,15.05
2023-02-15T02:42:37.331Z,13.82
2023-02-15T02:45:06.546Z,16.02
2023-02-15T02:47:57.981Z,14.38
2023-02-15T02:50:30.470Z,14.85
2023-02-15T02:52:59.928Z,15.27
2023-02-15T02:55:34.653Z,14.25
2023-02-15T02:58:36.680Z,15.38
2023-02-15T03:01:14.294Z,15.23
2023-02-15T03:03:51.992Z,14.68
2023-02-15T03:06:34.098Z,15.88
2023-02-15T03:09:20.026Z,15.38
2023-02-15T03:11:48.216Z,14.25
2023-02-15T03:14:18.871Z,14.43
2023-02-15T03:16:54.777Z,14.48
2023-02-15T03:19:29.373Z,15.52
2023-02-15T03:22:14.657Z,15.30
2023-02-15T03:25:11.885Z,15.15
2023-02-15T03:27:50.006Z,14.23
2023-02-15T03:30:24.462Z,14.00
2023-02-15T03:32:56.246Z,14.30
2023-02-15T03:35:26.968Z,14.02
2023-02-15T03:38:01.898Z,13.77
2023-02-15T03:40:58.347Z,13.77
2023-02-15T03:43:47.130Z,13.73
2023-02-15T03:46:38.242Z,13.40
2023-02-15T03:49:15.374Z,14.57
2023-02-15T03:51:49.173Z,14.63
2023-02-15T03:54:40.013Z,14.73
2023-02-15T03:57:44.439Z,14.27
2023-02-15T04:00:43.465Z,14.52
2023-02-15T04:03:16.302Z,13.88
2023-02-15T04:05:45.335Z,14.40
2023-02-15T04:08:13.600Z,13.98
2023-02-15T04:10:58.547Z,14.80
2023-02-15T04:13:32.416Z,15.15
2023-02-15T04:16:06.007Z,14.82
2023-02-15T04:18:54.832Z,14.63
2023-02-15T04:21:42.948Z,14.52
2023-02-15T04:24:32.150Z,14.77
2023-02-15T04:27:00.174Z,15.05
2023-02-15T04:29:30.854Z,14.95
2023-02-15T04:32:02.640Z,14.82
2023-02-15T04:36:59.419Z,13.23
2023-02-15T04:39:26.690Z,13.70
2023-02-15T04:41:54.049Z,15.27
2023-02-15T04:44:21.338Z,15.13
2023-02-15T04:46:48.613Z,14.80
2023-02-15T04:49:20.841Z,15.10
2023-02-15T04:51:50.674Z,15.18
2023-02-15T04:54:17.976Z,16.60
2023-02-15T04:56:47.660Z,15.30
2023-02-15T04:59:14.993Z,14.95
2023-02-15T05:01:47.398Z,14.90
2023-02-15T05:04:19.741Z,14.43
2023-02-15T05:06:49.466Z,14.93
2023-02-15T05:09:17.190Z,14.88
2023-02-15T05:11:44.457Z,14.95
2023-02-15T05:14:11.870Z,15.32
2023-02-15T05:16:39.551Z,15.00
2023-02-15T05:19:06.942Z,14.65
2023-02-15T05:21:34.319Z,15.93
2023-02-15T05:24:23.836Z,15.30
2023-02-15T05:27:12.264Z,16.08
2023-02-15T05:29:41.921Z,16.10
2023-02-15T05:32:11.745Z,15.40
2023-02-15T05:34:39.053Z,17.35
2023-02-15T05:37:06.294Z,17.00
2023-02-15T05:39:33.563Z,16.52
2023-02-15T05:42:01.322Z,17.13
2023-02-15T05:44:28.614Z,16.90
2023-02-15T05:46:55.917Z,18.55
2023-02-15T05:49:23.249Z,17.13
2023-02-15T05:51:52.730Z,18.05
2023-02-15T05:54:20.001Z,17.98
2023-02-15T05:56:49.612Z,19.13
2023-02-15T05:59:16.974Z,17.58
2023-02-15T06:01:48.712Z,18.25
2023-02-15T06:06:45.320Z,19.40
2023-02-15T06:09:13.690Z,18.13
2023-02-15T06:11:46.133Z,19.27
2023-02-15T06:14:13.438Z,19.85
2023-02-15T06:16:40.735Z,19.00
2023-02-15T06:19:10.134Z,17.42
2023-02-15T06:21:37.461Z,18.15
2023-02-15T06:24:09.012Z,17.92
2023-02-15T06:26:36.344Z,17.20
2023-02-15T06:29:04.193Z,18.52
2023-02-15T06:31:31.615Z,18.48
2023-02-15T06:34:06.953Z,18.00
2023-02-15T06:36:36.754Z,17.88
2023-02-15T06:39:05.043Z,19.23
2023-02-15T06:41:32.303Z,18.77
2023-02-15T06:44:04.027Z,19.35
2023-02-15T06:46:31.862Z,19.50
2023-02-15T06:49:01.489Z,19.00
2023-02-15T06:51:28.751Z,19.42
2023-02-15T06:53:56.024Z,19.33
2023-02-15T06:56:23.612Z,19.63
2023-02-15T06:58:55.578Z,18.65
2023-02-15T07:01:22.906Z,19.23
2023-02-15T07:03:52.841Z,18.65
2023-02-15T07:06:20.213Z,18.52
2023-02-15T07:08:47.525Z,19.58
2023-02-15T07:11:33.154Z,19.67
2023-02-15T07:14:00.435Z,18.80
2023-02-15T07:16:27.762Z,21.02
2023-02-15T07:18:55.091Z,21.90
2023-02-15T07:21:22.339Z,20.08
2023-02-15T07:23:51.997Z,19.73
2023-02-15T07:26:21.800Z,19.73
2023-02-15T07:28:49.078Z,20.15
2023-02-15T07:31:18.949Z,20.02
2023-02-15T07:33:46.410Z,19.95
2023-02-15T07:36:14.710Z,19.65
2023-02-15T07:38:43.544Z,19.38
2023-02-15T07:41:12.827Z,19.98
2023-02-15T07:43:43.414Z,19.25
2023-02-15T07:46:16.138Z,18.95
2023-02-15T07:48:44.713Z,19.58
2023-02-15T07:51:18.052Z,18.48
2023-02-15T07:53:48.157Z,18.83
2023-02-15T07:56:18.024Z,18.23
2023-02-15T07:58:54.952Z,19.23
2023-02-15T08:01:36.849Z,20.58
2023-02-15T08:04:08.545Z,20.65
2023-02-15T08:09:06.391Z,17.17
2023-02-15T08:11:36.309Z,18.40
2023-02-15T08:14:11.540Z,17.42
2023-02-15T08:16:44.178Z,16.95
2023-02-15T08:19:14.456Z,17.25
2023-02-15T08:21:50.802Z,18.33
2023-02-15T08:24:20.358Z,17.10
2023-02-15T08:26:48.759Z,17.55
2023-02-15T08:29:18.969Z,16.83
2023-02-15T08:31:46.860Z,17.10
2023-02-15T08:34:19.468Z,18.23
2023-02-15T08:36:46.998Z,17.02
2023-02-15T08:39:15.935Z,18.30
2023-02-15T08:41:45.517Z,17.30
2023-02-15T08:44:19.059Z,16.83
2023-02-15T08:46:50.014Z,15.23
2023-02-15T08:49:20.361Z,22.85
2023-02-15T08:51:51.429Z,19.98
2023-02-15T08:54:21.144Z,17.17
2023-02-15T08:56:48.598Z,18.70
2023-02-15T08:59:24.010Z,15.82
2023-02-15T09:01:52.901Z,17.67
2023-02-15T09:04:21.798Z,17.27
2023-02-15T09:06:52.441Z,18.05
2023-02-15T09:09:22.966Z,16.52
2023-02-15T09:11:56.768Z,15.23
2023-02-15T09:14:27.618Z,15.30
2023-02-15T09:16:57.531Z,15.57
2023-02-15T09:19:28.873Z,15.88
2023-02-15T09:21:59.529Z,18.02
2023-02-15T09:24:34.759Z,16.30
2023-02-15T09:27:04.682Z,15.20
2023-02-15T09:29:31.940Z,15.63
2023-02-15T09:32:01.657Z,14.73
2023-02-15T09:34:28.997Z,15.02
2023-02-15T09:36:56.232Z,14.65
2023-02-15T09:39:25.642Z,16.25
2023-02-15T09:42:29.468Z,15.52
2023-02-15T09:45:20.133Z,16.08
2023-02-15T09:48:05.958Z,18.10
2023-02-15T09:51:11.004Z,18.05
2023-02-15T09:53:55.447Z,16.52
2023-02-15T09:56:46.154Z,15.68
2023-02-15T09:59:38.939Z,14.82
2023-02-15T10:02:43.947Z,13.68
2023-02-15T10:05:22.985Z,15.05
2023-02-15T10:08:27.877Z,15.00
2023-02-15T10:11:42.325Z,13.45
2023-02-15T10:14:21.262Z,14.45
2023-02-15T10:17:09.849Z,14.32
2023-02-15T10:20:12.322Z,14.68
2023-02-15T10:26:08.128Z,15.13
2023-02-15T10:28:56.323Z,15.93
2023-02-15T10:31:36.250Z,14.30
2023-02-15T10:34:15.649Z,16.85
2023-02-15T10:37:02.974Z,15.52
2023-02-15T10:39:39.970Z,14.68
2023-02-15T10:42:22.509Z,14.00
2023-02-15T10:44:52.602Z,15.05
2023-02-15T10:47:39.246Z,15.68
2023-02-15T10:50:15.134Z,13.45
2023-02-15T10:53:02.952Z,15.27
2023-02-15T10:55:37.528Z,17.73
2023-02-15T10:58:25.661Z,16.23
2023-02-15T11:01:24.417Z,16.08
2023-02-15T11:04:33.024Z,15.70
2023-02-15T11:07:23.351Z,15.40
2023-02-15T11:09:57.804Z,15.93
2023-02-15T11:12:30.166Z,15.32
2023-02-15T11:15:15.796Z,15.40
2023-02-15T11:17:54.275Z,16.02
2023-02-15T11:20:40.004Z,15.75
2023-02-15T11:23:17.783Z,16.05
2023-02-15T11:26:01.319Z,14.35
2023-02-15T11:28:40.120Z,15.07
2023-02-15T11:31:23.525Z,14.18
2023-02-15T11:34:04.316Z,14.65
2023-02-15T11:36:38.334Z,15.27
2023-02-15T11:39:19.370Z,15.18
2023-02-15T11:41:53.053Z,15.43
2023-02-15T11:44:28.966Z,15.30
2023-02-15T11:46:56.307Z,14.98
2023-02-15T11:49:36.027Z,15.45
2023-02-15T11:52:10.879Z,15.43
2023-02-15T11:54:45.288Z,16.50
2023-02-15T11:57:28.522Z,15.00
2023-02-15T12:00:24.095Z,15.13
2023-02-15T12:02:54.755Z,14.85
2023-02-15T12:05:26.190Z,15.52
2023-02-15T12:08:00.377Z,15.35
2023-02-15T12:10:33.001Z,15.60
2023-02-15T12:13:20.556Z,16.42
2023-02-15T12:15:59.603Z,16.15
2023-02-15T12:18:27.670Z,15.60
2023-02-15T12:21:31.581Z,17.27
2023-02-15T12:24:15.166Z,16.25
2023-02-15T12:26:42.589Z,15.93
2023-02-15T12:29:22.489Z,16.13
2023-02-15T12:31:53.538Z,16.30
2023-02-15T12:34:30.527Z,15.57
2023-02-15T12:37:15.720Z,15.77
2023-02-15T12:40:03.598Z,15.57
2023-02-15T12:42:45.481Z,15.20
2023-02-15T12:48:18.791Z,15.32
2023-02-15T12:54:40.998Z,17.15
2023-02-15T12:57:22.283Z,16.92
2023-02-15T13:00:02.375Z,16.10
2023-02-15T13:02:39.530Z,16.33
2023-02-15T13:05:31.786Z,17.17
2023-02-15T13:08:12.114Z,18.48
2023-02-15T13:11:06.945Z,16.98
2023-02-15T13:13:56.919Z,18.48
2023-02-15T13:16:37.665Z,18.55
2023-02-15T13:19:15.465Z,18.15
2023-02-15T13:21:49.115Z,22.00
2023-02-15T13:24:25.355Z,19.02
2023-02-15T13:27:03.508Z,18.83
2023-02-15T13:29:40.918Z,17.80
2023-02-15T13:32:22.186Z,19.08
2023-02-15T13:35:09.404Z,18.13
2023-02-15T13:37:58.235Z,18.15
2023-02-15T13:40:46.752Z,18.27
2023-02-15T13:43:26.041Z,18.50
2023-02-15T13:46:18.860Z,17.85
2023-02-15T13:49:11.569Z,17.35
2023-02-15T13:51:44.001Z,18.27
2023-02-15T13:54:22.641Z,18.55
2023-02-15T13:57:27.654Z,19.02
2023-02-15T14:00:19.068Z,18.77
2023-02-15T14:03:08.141Z,18.63
2023-02-15T14:06:13.096Z,19.60
2023-02-15T14:09:05.159Z,20.00
2023-02-15T14:12:05.456Z,17.50
2023-02-15T14:15:10.116Z,17.27
2023-02-15T14:17:49.708Z,18.33
2023-02-15T14:20:54.671Z,18.30
2023-02-15T14:23:50.133Z,17.92
2023-02-15T14:26:35.346Z,18.52
2023-02-15T14:29:34.689Z,18.20
2023-02-15T14:32:10.429Z,19.10
2023-02-15T14:34:51.568Z,17.88
2023-02-15T14:37:32.094Z,18.52
2023-02-15T14:40:43.483Z,18.45
2023-02-15T14:43:16.249Z,19.97
2023-02-15T14:46:18.572Z,19.20
2023-02-15T14:48:56.662Z,18.90
2023-02-15T14:51:47.044Z,17.98
2023-02-15T14:54:17.295Z,19.13
2023-02-15T14:57:11.052Z,19.60
2023-02-15T14:59:38.370Z,19.85
2023-02-15T15:02:19.631Z,19.65
2023-02-15T15:04:52.784Z,19.90
2023-02-15T15:07:27.708Z,19.67
2023-02-15T15:10:17.111Z,19.42
2023-02-15T15:12:58.525Z,20.45
2023-02-15T15:15:30.968Z,19.02
2023-02-15T15:18:10.815Z,19.58
2023-02-15T15:20:41.845Z,20.63
2023-02-15T15:23:18.998Z,19.85
2023-02-15T15:25:53.003Z,21.05
2023-02-15T15:28:35.681Z,19.98
2023-02-15T15:31:23.435Z,21.15
2023-02-15T15:34:16.079Z,20.83
2023-02-15T15:37:30.372Z,21.08
2023-02-15T15:40:42.324Z,20.67
2023-02-15T15:43:31.396Z,18.48
2023-02-15T15:46:23.398Z,20.20
2023-02-15T15:51:30.590Z,19.17
2023-02-15T15:53:58.559Z,19.38
2023-02-15T15:56:32.470Z,21.17
2023-02-15T15:59:03.187Z,20.20
2023-02-15T16:01:35.510Z,20.52
2023-02-15T16:04:03.140Z,21.05
2023-02-15T16:06:39.818Z,21.23
2023-02-15T16:09:22.061Z,20.50
2023-02-15T16:12:02.734Z,20.60
2023-02-15T16:14:30.037Z,20.85
2023-02-15T16:17:00.550Z,19.95
2023-02-15T16:19:39.827Z,19.33
2023-02-15T16:22:28.672Z,19.17
2023-02-15T16:25:35.420Z,18.50
2023-02-15T16:28:13.029Z,19.27
2023-02-15T16:30:43.187Z,18.85
2023-02-15T16:33:17.732Z,18.67
2023-02-15T16:35:59.015Z,19.55
2023-02-15T16:38:44.476Z,20.15
2023-02-15T16:41:19.920Z,21.80
2023-02-15T16:43:49.591Z,22.13
2023-02-15T16:46:23.989Z,21.30
2023-02-15T16:48:57.337Z,19.75
2023-02-15T16:51:32.994Z,20.95
2023-02-15T16:54:19.767Z,21.15
2023-02-15T16:56:50.103Z,21.83
2023-02-15T16:59:40.846Z,20.70
2023-02-15T17:02:32.222Z,20.45
2023-02-15T17:05:31.249Z,19.90
2023-02-15T17:08:24.634Z,20.83
2023-02-15T17:11:13.116Z,23.58
2023-02-15T17:14:00.757Z,22.10
2023-02-15T17:16:34.196Z,20.70
2023-02-15T17:19:15.516Z,20.75
2023-02-15T17:21:48.881Z,21.50
2023-02-15T17:24:36.306Z,21.10
2023-02-15T17:27:14.170Z,21.65
2023-02-15T17:29:52.947Z,21.30
2023-02-15T17:32:24.735Z,20.60
2023-02-15T17:35:00.624Z,23.02
2023-02-15T17:37:36.917Z,21.33
2023-02-15T17:40:19.308Z,21.05
2023-02-15T17:42:49.422Z,21.33
2023-02-15T17:45:17.271Z,20.30
2023-02-15T17:47:51.115Z,21.00
2023-02-15T17:50:31.482Z,19.80
2023-02-15T17:53:01.494Z,20.75
2023-02-15T17:55:43.034Z,20.48
2023-02-15T17:58:11.875Z,21.05
2023-02-15T18:01:03.706Z,21.05
2023-02-15T18:04:09.380Z,20.30
2023-02-15T18:06:58.405Z,20.05
2023-02-15T18:09:44.444Z,22.92
2023-02-15T18:12:20.995Z,23.80
2023-02-15T18:14:49.316Z,22.73
2023-02-15T18:17:17.793Z,20.75
2023-02-15T18:19:48.259Z,22.23
2023-02-15T18:22:19.003Z,22.73
2023-02-15T18:24:47.666Z,22.08
2023-02-15T18:27:17.228Z,21.60
2023-02-15T18:29:44.574Z,22.40
2023-02-15T18:32:27.346Z,21.77
2023-02-15T18:34:57.716Z,23.98
2023-02-15T18:37:29.683Z,24.48
2023-02-15T18:39:57.112Z,22.17
2023-02-15T18:42:27.376Z,24.25
2023-02-15T18:45:03.121Z,23.98
2023-02-15T18:47:32.766Z,23.27
2023-02-15T18:50:02.587Z,23.67
2023-02-15T18:52:34.614Z,23.38
2023-02-15T18:55:07.978Z,24.40
2023-02-15T18:57:35.320Z,22.48
2023-02-15T19:00:02.814Z,23.73
2023-02-15T19:02:30.111Z,23.48
2023-02-15T19:05:02.290Z,24.05
2023-02-15T19:07:36.069Z,23.75
2023-02-15T19:10:08.319Z,23.92
2023-02-15T19:12:35.589Z,22.98
2023-02-15T19:15:05.165Z,23.05
2023-02-15T19:17:32.454Z,22.05
2023-02-15T19:20:02.168Z,22.85
2023-02-15T19:22:31.425Z,22.77
2023-02-15T19:25:01.069Z,22.27
2023-02-15T19:27:37.495Z,24.98
2023-02-15T19:30:18.107Z,24.00
2023-02-15T19:32:46.325Z,24.05
2023-02-15T19:35:22.472Z,21.98
2023-02-15T19:37:54.415Z,23.90
2023-02-15T19:40:23.276Z,22.83
2023-02-15T19:42:50.798Z,23.13
2023-02-15T19:45:21.705Z,21.92
2023-02-15T19:47:53.932Z,21.67
2023-02-15T19:50:26.072Z,21.90
2023-02-15T19:52:53.483Z,22.02
2023-02-15T19:55:26.650Z,19.65
2023-02-15T19:57:58.095Z,21.33
2023-02-15T20:00:28.037Z,22.08
2023-02-15T20:02:56.706Z,21.65
2023-02-15T20:05:24.237Z,19.55
2023-02-15T20:07:53.857Z,20.08
2023-02-15T20:10:24.122Z,19.42
2023-02-15T20:12:51.822Z,20.92
2023-02-15T20:15:25.043Z,21.75
2023-02-15T20:17:52.532Z,21.15
2023-02-15T20:20:26.936Z,19.75
2023-02-15T20:22:57.356Z,20.92
2023-02-15T20:25:34.027Z,19.52
2023-02-15T20:28:03.712Z,19.80
2023-02-15T20:30:32.313Z,20.27
2023-02-15T20:32:59.995Z,21.38
2023-02-15T20:35:28.890Z,23.17
2023-02-15T20:38:02.747Z,23.88
2023-02-15T20:40:36.027Z,26.48
2023-02-15T20:43:03.364Z,22.98
2023-02-15T20:45:35.618Z,21.17
2023-02-15T20:48:03.963Z,21.70
2023-02-15T20:50:33.202Z,22.33
2023-02-15T20:53:02.821Z,21.98
2023-02-15T20:55:31.932Z,21.25
2023-02-15T20:57:59.696Z,20.10
2023-02-15T21:00:31.231Z,20.20
2023-02-15T21:03:01.944Z,17.95
2023-02-15T21:05:33.189Z,18.13
2023-02-15T21:08:26.483Z,18.10
2023-02-15T21:10:56.411Z,18.20
2023-02-15T21:13:34.493Z,18.17
2023-02-15T21:16:04.362Z,17.10
2023-02-15T21:18:34.454Z,19.67
2023-02-15T21:21:07.156Z,18.70
2023-02-15T21:23:41.745Z,18.85
2023-02-15T21:26:19.710Z,17.58
2023-02-15T21:28:48.373Z,18.17
2023-02-15T21:31:19.039Z,18.27
2023-02-15T21:33:49.040Z,18.40
2023-02-15T21:36:23.336Z,18.60
2023-02-15T21:38:53.623Z,18.67
2023-02-15T21:41:42.985Z,18.55
2023-02-15T21:44:37.465Z,18.92
2023-02-15T21:47:24.339Z,19.23
2023-02-15T21:49:51.634Z,19.20
2023-02-15T21:52:25.985Z,19.63
2023-02-15T21:54:53.233Z,18.67
2023-02-15T21:57:23.106Z,18.38
2023-02-15T21:59:52.678Z,18.73
2023-02-15T22:02:27.537Z,19.98
2023-02-15T22:04:55.160Z,18.45
2023-02-15T22:07:24.794Z,18.50
2023-02-15T22:09:52.099Z,18.20
2023-02-15T22:12:21.061Z,18.40
2023-02-15T22:14:53.530Z,18.63
2023-02-15T22:17:30.376Z,18.65
2023-02-15T22:19:58.396Z,18.23
2023-02-15T22:22:30.114Z,19.80
2023-02-15T22:24:59.797Z,19.85
2023-02-15T22:27:28.178Z,19.27
2023-02-15T22:29:55.668Z,19.27
2023-02-15T22:32:27.454Z,19.00
2023-02-15T22:37:21.980Z,18.48
2023-02-15T22:39:49.396Z,21.02
2023-02-15T22:42:27.605Z,19.10
2023-02-15T22:44:56.983Z,20.02
2023-02-15T22:47:29.626Z,20.40
2023-02-15T22:58:23.625Z,19.15
2023-02-15T23:00:54.113Z,20.08
2023-02-15T23:03:28.849Z,19.67
2023-02-15T23:05:58.572Z,19.10
2023-02-15T23:08:25.844Z,18.58
2023-02-15T23:10:59.117Z,20.15
2023-02-15T23:13:31.349Z,19.45
2023-02-15T23:16:02.961Z,19.25
2023-02-15T23:18:41.816Z,20.15
2023-02-15T23:21:31.514Z,19.42
2023-02-15T23:24:15.835Z,18.33
2023-02-15T23:26:43.264Z,18.52
2023-02-15T23:29:23.031Z,19.50
2023-02-15T23:31:53.555Z,19.15
2023-02-15T23:34:29.807Z,20.40
2023-02-15T23:37:01.653Z,19.58
2023-02-15T23:42:21.479Z,17.80
2023-02-15T23:44:49.316Z,18.23
2023-02-15T23:47:54.133Z,19.23
2023-02-15T23:50:27.247Z,19.80
2023-02-15T23:53:00.590Z,19.05
2023-02-15T23:55:44.060Z,18.27
2023-02-15T23:58:17.858Z,18.83
